sensor_id;sensor_type;location;lat;lon;timestamp;pressure;altitude;pressure_sealevel;temperature;humidity
36138;BME280;67787;50.074;21.904;2023-02-18T08:40:46;98709.89;;;6.20;50.73
36138;BME280;67787;50.074;21.904;2023-02-18T08:43:16;98711.67;;;6.25;50.53
36138;BME280;67787;50.074;21.904;2023-02-18T08:45:44;98722.88;;;6.35;50.69
36138;BME280;67787;50.074;21.904;2023-02-18T08:48:13;98715.72;;;6.43;50.39
36138;BME280;67787;50.074;21.904;2023-02-18T08:50:47;98711.45;;;6.50;50.76
36138;BME280;67787;50.074;21.904;2023-02-18T13:37:37;98589.70;;;8.22;49.99
36138;BME280;67787;50.074;21.904;2023-02-18T13:40:20;98591.58;;;8.08;50.68
36138;BME280;67787;50.074;21.904;2023-02-18T13:42:53;98589.85;;;7.95;51.35
36138;BME280;67787;50.074;21.904;2023-02-18T13:45:27;98588.29;;;7.87;51.47
36138;BME280;67787;50.074;21.904;2023-02-18T13:47:59;98593.05;;;7.79;51.43
36138;BME280;67787;50.074;21.904;2023-02-18T13:50:31;98595.78;;;7.75;51.96
36138;BME280;67787;50.074;21.904;2023-02-18T13:56:26;98576.95;;;7.77;51.91
36138;BME280;67787;50.074;21.904;2023-02-18T13:59:05;98575.13;;;7.78;52.32
36138;BME280;67787;50.074;21.904;2023-02-18T14:01:47;98579.15;;;7.75;53.55
36138;BME280;67787;50.074;21.904;2023-02-18T14:09:57;98550.48;;;7.92;52.74
36138;BME280;67787;50.074;21.904;2023-02-18T14:12:36;98553.09;;;7.95;52.72
36138;BME280;67787;50.074;21.904;2023-02-18T14:33:34;98515.34;;;7.43;53.47
36138;BME280;67787;50.074;21.904;2023-02-18T14:50:47;98473.92;;;7.20;54.38
36138;BME280;67787;50.074;21.904;2023-02-18T14:53:22;98468.96;;;7.18;55.24
36138;BME280;67787;50.074;21.904;2023-02-18T14:56:01;98466.41;;;7.13;55.14
36138;BME280;67787;50.074;21.904;2023-02-18T15:01:27;98453.21;;;7.02;55.54
36138;BME280;67787;50.074;21.904;2023-02-18T15:03:55;98450.35;;;6.98;55.41
36138;BME280;67787;50.074;21.904;2023-02-18T15:06:37;98445.84;;;6.94;55.36
36138;BME280;67787;50.074;21.904;2023-02-18T15:11:51;98440.21;;;6.86;55.59
36138;BME280;67787;50.074;21.904;2023-02-18T15:14:25;98434.92;;;6.84;55.29
36138;BME280;67787;50.074;21.904;2023-02-18T15:16:54;98434.46;;;6.82;55.18
36138;BME280;67787;50.074;21.904;2023-02-18T15:19:29;98431.05;;;6.81;54.83
36138;BME280;67787;50.074;21.904;2023-02-18T15:22:01;98431.45;;;6.80;55.82
36138;BME280;67787;50.074;21.904;2023-02-18T15:24:33;98425.52;;;6.79;55.15
36138;BME280;67787;50.074;21.904;2023-02-18T15:27:14;98423.22;;;6.79;55.61
36138;BME280;67787;50.074;21.904;2023-02-18T15:29:48;98413.98;;;6.78;55.54
36138;BME280;67787;50.074;21.904;2023-02-18T15:32:21;98409.09;;;6.77;55.39
36138;BME280;67787;50.074;21.904;2023-02-18T15:34:53;98404.95;;;6.76;55.32
36138;BME280;67787;50.074;21.904;2023-02-18T15:37:23;98400.92;;;6.76;55.11
36138;BME280;67787;50.074;21.904;2023-02-18T15:39:53;98397.59;;;6.75;54.93
36138;BME280;67787;50.074;21.904;2023-02-18T15:42:28;98386.82;;;6.76;55.05
36138;BME280;67787;50.074;21.904;2023-02-18T15:45:09;98381.59;;;6.75;55.19
36138;BME280;67787;50.074;21.904;2023-02-18T15:47:52;98375.63;;;6.74;55.34
36138;BME280;67787;50.074;21.904;2023-02-18T15:50:32;98362.77;;;6.74;55.38
36138;BME280;67787;50.074;21.904;2023-02-18T15:53:10;98356.30;;;6.74;55.36
36138;BME280;67787;50.074;21.904;2023-02-18T15:55:42;98348.70;;;6.74;55.60
36138;BME280;67787;50.074;21.904;2023-02-18T15:58:27;98345.69;;;6.74;55.33
36138;BME280;67787;50.074;21.904;2023-02-18T16:01:01;98351.14;;;6.74;55.72
36138;BME280;67787;50.074;21.904;2023-02-18T16:03:43;98344.27;;;6.74;55.43
36138;BME280;67787;50.074;21.904;2023-02-18T16:06:24;98334.16;;;6.73;55.58
36138;BME280;67787;50.074;21.904;2023-02-18T16:09:02;98318.27;;;6.71;55.73
36138;BME280;67787;50.074;21.904;2023-02-18T16:11:37;98319.98;;;6.69;55.92
36138;BME280;67787;50.074;21.904;2023-02-18T16:14:06;98316.60;;;6.66;56.10
36138;BME280;67787;50.074;21.904;2023-02-18T16:16:36;98314.04;;;6.65;56.06
36138;BME280;67787;50.074;21.904;2023-02-18T16:19:22;98314.78;;;6.65;56.16
36138;BME280;67787;50.074;21.904;2023-02-18T16:21:51;98307.51;;;6.63;56.60
36138;BME280;67787;50.074;21.904;2023-02-18T16:24:29;98301.61;;;6.62;56.49
36138;BME280;67787;50.074;21.904;2023-02-18T16:27:00;98298.14;;;6.61;56.61
36138;BME280;67787;50.074;21.904;2023-02-18T16:29:35;98294.48;;;6.60;56.42
36138;BME280;67787;50.074;21.904;2023-02-18T16:32:04;98293.80;;;6.60;56.73
36138;BME280;67787;50.074;21.904;2023-02-18T16:34:35;98276.91;;;6.59;56.69
36138;BME280;67787;50.074;21.904;2023-02-18T16:37:04;98286.51;;;6.58;57.01
36138;BME280;67787;50.074;21.904;2023-02-18T16:39:50;98271.61;;;6.54;57.01
36138;BME280;67787;50.074;21.904;2023-02-18T16:42:21;98286.96;;;6.52;57.29
36138;BME280;67787;50.074;21.904;2023-02-18T16:44:49;98263.42;;;6.48;57.03
36138;BME280;67787;50.074;21.904;2023-02-18T16:47:19;98271.83;;;6.46;57.35
36138;BME280;67787;50.074;21.904;2023-02-18T16:49:48;98268.27;;;6.44;57.13
36138;BME280;67787;50.074;21.904;2023-02-18T16:52:18;98262.27;;;6.42;57.39
36138;BME280;67787;50.074;21.904;2023-02-18T16:54:47;98265.89;;;6.37;57.47
36138;BME280;67787;50.074;21.904;2023-02-18T16:57:17;98248.04;;;6.36;57.48
36138;BME280;67787;50.074;21.904;2023-02-18T16:59:45;98236.32;;;6.35;57.45
36138;BME280;67787;50.074;21.904;2023-02-18T17:02:17;98238.38;;;6.33;57.74
